Main page
METAR-TAF:

METAR-TAF

Airports :

Bahrain International Airport

Bahrain, Bahrain

latitude: 26-16N, longitude: 050-39E, elevation: 2 m

Current weather observation

The report was made 22 minutes ago, at 04:30 UTC
Wind 15 kt from the West/Northwest
Temperature 21°C
Humidity 64%
Pressure 1020 hPa
Visibility 10 km or more
Few clouds at a height of 2500 ft

METAR: OBBI 210430Z 29015KT 9999 FEW025 21/14 Q1020 NOSIG

Time: 07:52 (04:52 UTC)

Forecast

The report was made 5 hours and 52 minutes ago, at 23:00 UTC
Forecast valid from 21 at 00 UTC to 22 at 06 UTC
Wind 15 kt from the Northwest with gusts up to 25 kt
Visibility 10 km or more
Few clouds at a height of 3000 ft
Becoming
from 21 at 15 UTC to 21 at 17 UTC
Wind 12 kt from the West/Northwest

TAF: OBBI 202300Z 2100/2206 32015G25KT 9999 FEW030 BECMG 2115/2117 30012KT

Weather observations and forecasts of more than 4000 airports (METAR and TAF reports).

The available stations are represented by yellow and red dots on the map.

Hover mouse over dot to see the name of the station.

Then click to see weather observations and forecasts.

To change the map : click on the green buttons with a black cross to zoom in, on the green button with a dash to zoom out, or on the green arrows for adjacent maps.


METAR-TAF: